UNAAUNKL

Guest
Details From UNAA - Abakan
To UNKL - Yemelyanovo
Flight Number -
Tags Generated
Created
Modified
Stats Distance 151 nm / 280 km
Max Altitude 0 ft / 0 m
Waypoints 2
Social Downloads 3
Likes 0
Share VATSIM

Download

Looking for another format? Having issues loading an existing format? Contact us
Advertisement - Login to hide

Notes

Generated

Route

UNAA UNKL

ID Type Via Altitude Latitude Longitude Leg Dist Tot Dist Heading (true) Name
O UNAA APT - 0 ft / 0 m 53.74374˚ 91.38316˚ - 0 nm - -
O UNKL APT - 0 ft / 0 m 56.17948˚ 92.46587˚ 150 nm 150 nm 14° / 15° -

Altitude Profile

Advertisement - Login to hide

UNAA

Details ICAO UNAA (ABA)
Name ABAKAN
Region Russia
Timezone Asia/Krasnoyarsk (UTC+7.0)
Stats Elevation 831 ft / 253 m (AMSL)
Location 53.743435° 91.385782°
Runways 3
Magnetic Variation 3.974° E

METAR

UNAA 151030Z 00000MPS 3200 0900W PRFG SCT003 M21/M24 Q1049 R02/490042 NOSIG RMK QBB090 QFE763

Decode

TAF

TAF UNAA 150800Z 1509/1609 VRB01MPS 2500 BR SCT007 BKN025CB TEMPO 1509/1603 0500 FZFG VV002 BECMG 1606/1607 2300 -SHSN BR

Decode

Departure Runways

ID Width Length Bearing (true) Bearing (mag) Surface Threshold Offset Overrun Length
02C 263 ft / 80 m 8,117 ft / 2,474 m 24.96° 20.99° Grass 0 ft / 0 m 0 ft / 0 m
02L 92 ft / 28 m 4,243 ft / 1,293 m 24.80° 20.83° Asphalt 0 ft / 0 m 100 ft / 30 m
02R 148 ft / 45 m 10,655 ft / 3,248 m 24.94° 20.97° Asphalt 1,640 ft / 500 m 200 ft / 61 m
20C 263 ft / 80 m 8,117 ft / 2,474 m 204.97° 201.00° Grass 0 ft / 0 m 0 ft / 0 m
20L 148 ft / 45 m 10,655 ft / 3,248 m 204.96° 200.99° Asphalt 820 ft / 250 m 0 ft / 0 m
20R 92 ft / 28 m 4,243 ft / 1,293 m 204.81° 200.84° Asphalt 0 ft / 0 m 100 ft / 30 m

UNKL

Details ICAO UNKL (KJA)
Name YEMELYANOVO
Region Russia
Timezone Asia/Krasnoyarsk (UTC+7.0)
Stats Elevation 942 ft / 287 m (AMSL)
Location 56.172946° 92.493276°
Runways 1
Magnetic Variation 4.123° E

METAR

UNKL 151030Z 26008G14MPS 9999 DRSN SCT026CB M09/M13 Q1041 R29/810155 NOSIG RMK QFE755

Decode

TAF

TAF UNKL 150754Z 1509/1609 26004G09MPS 9999 -SHSN SCT013CB TEMPO 1509/1524 26009G14MPS 2500 -SHSN BLSN SCT005 BKN013CB TEMPO 1600/1606 27011G16MPS 1500 SHSN VV004

Decode

Destination Runways

ID Width Length Bearing (true) Bearing (mag) Surface Threshold Offset Overrun Length
11 197 ft / 60 m 12,113 ft / 3,692 m 113.16° 109.04° Asphalt 0 ft / 0 m 235 ft / 72 m
29 197 ft / 60 m 12,113 ft / 3,692 m 293.21° 289.09° Asphalt 0 ft / 0 m 215 ft / 66 m

Popular Alternatives